Terminal Aerodrome Forecast
Issued by NWS

Home | Current Version | Previous Version | Text Only | Print | Product List | Glossary On
Versions: 1 2 3 4 5 6 7 8 9 10 11 12 13 14 15 16
000
FTUS46 KSGX 191100
TAFONT
TAF
KONT 191126Z 1912/2018 VRB04KT P6SM FEW200
     FM192200 26008KT P6SM SCT035 BKN200
     FM200300 VRB04KT P6SM BKN035
     FM200900 VRB04KT P6SM VCSH BKN030
     FM201600 VRB04KT P6SM SCT030 BKN050=

USA.gov is the U.S. government's official web portal to all federal, state and local government web resources and services.